createdAt,value
2023-04-14T00:02:24.942Z,96306.97
2023-04-14T00:04:54.127Z,96307.75
2023-04-14T00:07:21.722Z,96315.81
2023-04-14T00:09:49.042Z,96314.22
2023-04-14T00:12:16.478Z,96318.31
2023-04-14T00:14:43.932Z,96312.81
2023-04-14T00:17:11.827Z,96306.66
2023-04-14T00:19:39.212Z,96297.84
2023-04-14T00:22:06.674Z,96298.72
2023-04-14T00:24:40.864Z,96291.84
2023-04-14T00:27:08.137Z,96296.38
2023-04-14T00:29:35.449Z,96291.47
2023-04-14T00:32:03.263Z,96283.44
2023-04-14T00:34:32.945Z,96281.72
2023-04-14T00:37:00.321Z,96289.63
2023-04-14T00:39:30.558Z,96292.28
2023-04-14T00:41:57.860Z,96289.94
2023-04-14T00:44:25.669Z,96275.47
2023-04-14T00:46:53.213Z,96284.41
2023-04-14T00:49:20.592Z,96281.75
2023-04-14T00:51:48.347Z,96279.53
2023-04-14T00:54:18.789Z,96273.84
2023-04-14T00:56:51.865Z,96272.56
2023-04-14T00:59:19.379Z,96269.47
2023-04-14T01:01:48.256Z,96265.53
2023-04-14T01:04:20.946Z,96268.63
2023-04-14T01:06:48.536Z,96257.41
2023-04-14T01:09:16.502Z,96265.31
2023-04-14T01:12:19.939Z,96248.69
2023-04-14T01:15:43.775Z,96250.53
2023-04-14T01:18:24.582Z,96252.97
2023-04-14T01:21:07.934Z,96261.91
2023-04-14T01:23:41.141Z,96260.34
2023-04-14T01:26:19.100Z,96254.22
2023-04-14T01:29:46.775Z,96247.44
2023-04-14T01:32:23.344Z,96244.59
2023-04-14T01:35:11.674Z,96237.50
2023-04-14T01:37:47.555Z,96241.41
2023-04-14T01:40:19.871Z,96235.84
2023-04-14T01:42:59.464Z,96233.56
2023-04-14T01:45:32.713Z,96228.53
2023-04-14T01:48:00.594Z,96229.72
2023-04-14T01:50:30.197Z,96220.59
2023-04-14T01:53:01.317Z,96211.13
2023-04-14T01:55:30.911Z,96204.97
2023-04-14T01:57:59.434Z,96207.47
2023-04-14T02:00:28.131Z,96200.84
2023-04-14T02:02:56.911Z,96204.75
2023-04-14T02:05:25.745Z,96207.88
2023-04-14T02:07:55.134Z,96202.50
2023-04-14T02:10:23.415Z,96206.13
2023-04-14T02:12:55.027Z,96204.66
2023-04-14T02:15:24.006Z,96197.88
2023-04-14T02:17:52.381Z,96201.59
2023-04-14T02:20:21.949Z,96183.78
2023-04-14T02:22:49.455Z,96179.59
2023-04-14T02:25:16.882Z,96182.84
2023-04-14T02:27:54.898Z,96183.41
2023-04-14T02:30:32.053Z,96175.41
2023-04-14T02:33:11.432Z,96180.16
2023-04-14T02:36:28.150Z,96174.41
2023-04-14T02:39:00.992Z,96174.94
2023-04-14T02:41:31.885Z,96168.22
2023-04-14T02:44:17.450Z,96161.56
2023-04-14T02:46:55.936Z,96166.59
2023-04-14T02:49:25.197Z,96163.22
2023-04-14T02:51:54.047Z,96165.88
2023-04-14T02:54:22.694Z,96172.03
2023-04-14T02:56:51.180Z,96165.44
2023-04-14T02:59:22.689Z,96164.47
2023-04-14T03:02:06.193Z,96169.31
2023-04-14T03:04:39.322Z,96164.78
2023-04-14T03:07:16.636Z,96156.03
2023-04-14T03:09:45.023Z,96149.63
2023-04-14T03:12:14.877Z,96143.28
2023-04-14T03:14:44.578Z,96143.25
2023-04-14T03:17:14.750Z,96145.81
2023-04-14T03:19:44.106Z,96132.44
2023-04-14T03:22:13.051Z,96127.84
2023-04-14T03:24:42.250Z,96134.16
2023-04-14T03:27:18.907Z,96126.94
2023-04-14T03:29:51.858Z,96133.97
2023-04-14T03:32:22.496Z,96143.75
2023-04-14T03:34:56.739Z,96129.78
2023-04-14T03:37:29.145Z,96127.63
2023-04-14T03:40:00.759Z,96130.78
2023-04-14T03:42:31.529Z,96142.97
2023-04-14T03:45:00.708Z,96143.16
2023-04-14T03:47:31.848Z,96147.41
2023-04-14T03:50:05.022Z,96155.69
2023-04-14T03:52:36.296Z,96149.53
2023-04-14T03:55:06.898Z,96154.34
2023-04-14T03:57:37.723Z,96146.50
2023-04-14T04:00:09.028Z,96147.22
2023-04-14T04:02:45.211Z,96139.53
2023-04-14T04:05:13.691Z,96139.13
2023-04-14T04:07:43.125Z,96142.75
2023-04-14T04:10:13.301Z,96135.69
2023-04-14T04:12:44.266Z,96136.91
2023-04-14T04:15:13.869Z,96132.25
2023-04-14T04:17:43.507Z,96121.50
2023-04-14T04:20:16.041Z,96118.94
2023-04-14T04:22:47.616Z,96112.38
2023-04-14T04:25:15.794Z,96107.59
2023-04-14T04:27:50.887Z,96102.81
2023-04-14T04:30:20.036Z,96096.16
2023-04-14T04:32:48.566Z,96095.97
2023-04-14T04:35:17.423Z,96097.00
2023-04-14T04:37:47.728Z,96110.41
2023-04-14T04:40:15.594Z,96111.75
2023-04-14T04:42:44.020Z,96113.84
2023-04-14T04:45:44.193Z,96114.16
2023-04-14T04:48:11.510Z,96108.19
2023-04-14T04:50:42.471Z,96111.69
2023-04-14T04:53:09.897Z,96109.75
2023-04-14T04:55:37.128Z,96115.13
2023-04-14T04:58:04.425Z,96106.63
2023-04-14T05:00:31.706Z,96099.47
2023-04-14T05:02:59.226Z,96096.47
2023-04-14T05:05:27.302Z,96094.31
2023-04-14T05:07:54.977Z,96089.41
2023-04-14T05:10:23.276Z,96096.66
2023-04-14T05:12:50.532Z,96091.69
2023-04-14T05:15:17.920Z,96093.53
2023-04-14T05:17:45.897Z,96084.25
2023-04-14T05:20:13.942Z,96090.78
2023-04-14T05:22:41.820Z,96095.03
2023-04-14T05:25:09.774Z,96093.72
2023-04-14T05:27:37.065Z,96096.03
2023-04-14T05:30:05.007Z,96098.94
2023-04-14T05:32:32.253Z,96099.75
2023-04-14T05:34:59.739Z,96096.56
2023-04-14T05:37:30.092Z,96097.91
2023-04-14T05:39:57.413Z,96083.72
2023-04-14T05:42:24.641Z,96080.97
2023-04-14T05:44:52.145Z,96080.50
2023-04-14T05:47:19.419Z,96081.72
2023-04-14T05:49:46.653Z,96080.28
2023-04-14T05:52:13.879Z,96080.47
2023-04-14T05:54:42.955Z,96076.66
2023-04-14T05:57:10.685Z,96069.78
2023-04-14T05:59:37.884Z,96076.72
2023-04-14T06:02:07.505Z,96069.28
2023-04-14T06:04:35.072Z,96064.00
2023-04-14T06:07:03.119Z,96063.69
2023-04-14T06:09:30.294Z,96069.88
2023-04-14T06:11:57.614Z,96064.28
2023-04-14T06:14:25.392Z,96059.75
2023-04-14T06:16:52.742Z,96063.28
2023-04-14T06:19:20.232Z,96057.59
2023-04-14T06:21:47.386Z,96058.88
2023-04-14T06:24:14.613Z,96059.41
2023-04-14T06:26:42.551Z,96053.72
2023-04-14T06:29:09.863Z,96067.78
2023-04-14T06:31:37.131Z,96067.97
2023-04-14T06:34:04.403Z,96065.94
2023-04-14T06:36:32.296Z,96068.44
2023-04-14T06:39:00.660Z,96061.84
2023-04-14T06:41:28.020Z,96065.63
2023-04-14T06:43:55.917Z,96062.59
2023-04-14T06:46:23.261Z,96066.25
2023-04-14T06:48:50.669Z,96076.75
2023-04-14T06:51:18.929Z,96067.91
2023-04-14T06:53:46.355Z,96059.16
2023-04-14T06:56:13.793Z,96057.31
2023-04-14T06:58:41.198Z,96061.69
2023-04-14T07:01:08.590Z,96050.44
2023-04-14T07:03:35.930Z,96069.16
2023-04-14T07:06:04.716Z,96060.41
2023-04-14T07:08:33.210Z,96057.28
2023-04-14T07:11:03.040Z,96063.22
2023-04-14T07:13:30.555Z,96055.13
2023-04-14T07:15:59.256Z,96054.22
2023-04-14T07:18:26.580Z,96057.13
2023-04-14T07:20:54.339Z,96052.22
2023-04-14T07:23:22.798Z,96045.66
2023-04-14T07:25:56.244Z,96046.63
2023-04-14T07:28:25.191Z,96044.41
2023-04-14T07:30:53.336Z,96048.31
2023-04-14T07:33:22.499Z,96037.09
2023-04-14T07:36:02.046Z,96033.41
2023-04-14T07:38:33.073Z,96042.59
2023-04-14T07:41:04.333Z,96037.91
2023-04-14T07:43:35.268Z,96053.75
2023-04-14T07:46:07.789Z,96052.69
2023-04-14T07:48:37.491Z,96051.22
2023-04-14T07:51:06.542Z,96045.84
2023-04-14T07:53:34.560Z,96047.13
2023-04-14T07:56:01.999Z,96053.19
2023-04-14T07:58:29.891Z,96053.84
2023-04-14T08:00:57.620Z,96047.50
2023-04-14T08:03:25.122Z,96048.25
2023-04-14T08:05:52.674Z,96051.22
2023-04-14T08:08:20.111Z,96044.66
2023-04-14T08:10:47.545Z,96048.91
2023-04-14T08:13:14.765Z,96037.38
2023-04-14T08:15:42.186Z,96043.81
2023-04-14T08:18:09.652Z,96044.63
2023-04-14T08:20:38.072Z,96046.25
2023-04-14T08:23:05.447Z,96052.75
2023-04-14T08:25:32.760Z,96051.34
2023-04-14T08:28:00.144Z,96044.38
2023-04-14T08:30:27.501Z,96045.44
2023-04-14T08:32:58.887Z,96044.09
2023-04-14T08:35:41.015Z,96035.84
2023-04-14T08:38:09.889Z,96037.03
2023-04-14T08:40:42.737Z,96032.25
2023-04-14T08:43:13.216Z,96028.50
2023-04-14T08:45:43.553Z,96023.81
2023-04-14T08:48:15.621Z,96024.50
2023-04-14T08:51:22.259Z,96032.06
2023-04-14T08:53:51.647Z,96025.63
2023-04-14T08:56:21.109Z,96030.72
2023-04-14T08:58:49.116Z,96030.41
2023-04-14T09:01:16.843Z,96022.53
2023-04-14T09:03:44.883Z,96017.22
2023-04-14T09:06:14.068Z,96019.72
2023-04-14T09:08:41.349Z,96014.50
2023-04-14T09:11:09.673Z,95999.94
2023-04-14T09:13:38.100Z,96007.22
2023-04-14T09:16:06.148Z,95992.75
2023-04-14T09:18:34.838Z,95999.28
2023-04-14T09:21:48.988Z,95993.97
2023-04-14T09:23:52.035Z,96003.75
2023-04-14T09:26:19.430Z,95992.09
2023-04-14T09:28:47.472Z,95991.66
2023-04-14T09:31:14.903Z,96001.28
2023-04-14T09:33:50.475Z,95995.91
2023-04-14T09:36:23.505Z,95990.78
2023-04-14T09:38:51.962Z,95981.53
2023-04-14T09:41:22.580Z,95972.72
2023-04-14T09:43:50.753Z,95970.47
2023-04-14T09:46:18.172Z,95962.38
2023-04-14T09:48:56.382Z,95970.47
2023-04-14T09:51:28.451Z,95958.25
2023-04-14T09:54:02.581Z,95965.19
2023-04-14T09:56:30.339Z,95963.44
2023-04-14T09:59:01.445Z,95962.34
2023-04-14T10:01:33.735Z,95955.22
2023-04-14T10:04:03.131Z,95948.56
2023-04-14T10:06:33.822Z,95950.34
2023-04-14T10:09:02.136Z,95945.38
2023-04-14T10:11:33.067Z,95944.00
2023-04-14T10:14:06.459Z,95939.94
2023-04-14T10:16:34.741Z,95929.38
2023-04-14T10:19:03.049Z,95942.88
2023-04-14T10:21:30.892Z,95942.13
2023-04-14T10:23:58.525Z,95945.66
2023-04-14T10:26:26.787Z,95944.38
2023-04-14T10:28:56.335Z,95947.63
2023-04-14T10:31:33.338Z,95941.13
2023-04-14T10:34:14.231Z,95938.19
2023-04-14T10:36:42.889Z,95950.25
2023-04-14T10:39:12.321Z,95944.50
2023-04-14T10:41:52.140Z,95946.19
2023-04-14T10:44:35.150Z,95935.22
2023-04-14T10:47:10.167Z,95927.03
2023-04-14T10:49:39.668Z,95925.28
2023-04-14T10:52:15.852Z,95929.09
2023-04-14T10:55:08.957Z,95938.59
2023-04-14T10:57:45.855Z,95929.22
2023-04-14T11:00:25.395Z,95928.47
2023-04-14T11:03:12.001Z,95925.34
2023-04-14T11:05:45.068Z,95921.13
2023-04-14T11:08:35.554Z,95897.59
2023-04-14T11:11:06.738Z,95886.88
2023-04-14T11:13:35.442Z,95899.06
2023-04-14T11:16:04.122Z,95891.84
2023-04-14T11:18:35.867Z,95896.50
2023-04-14T11:21:16.125Z,95898.50
2023-04-14T11:23:44.084Z,95892.94
2023-04-14T11:26:14.422Z,95893.13
2023-04-14T11:28:44.642Z,95891.78
2023-04-14T11:31:15.169Z,95884.75
2023-04-14T11:33:42.674Z,95881.78
2023-04-14T11:36:13.054Z,95875.38
2023-04-14T11:38:40.990Z,95876.50
2023-04-14T11:41:10.134Z,95875.88
2023-04-14T11:43:46.683Z,95883.31
2023-04-14T11:46:15.889Z,95878.69
2023-04-14T11:48:43.228Z,95880.00
2023-04-14T11:51:10.622Z,95872.13
2023-04-14T11:53:40.672Z,95866.38
2023-04-14T11:56:13.172Z,95858.56
2023-04-14T11:58:40.921Z,95857.06
2023-04-14T12:01:09.034Z,95851.34
2023-04-14T12:03:39.283Z,95848.69
2023-04-14T12:06:07.193Z,95834.63
2023-04-14T12:08:36.296Z,95832.53
2023-04-14T12:11:15.351Z,95832.13
2023-04-14T12:13:44.348Z,95827.47
2023-04-14T12:16:16.895Z,95819.72
2023-04-14T12:18:44.916Z,95821.50
2023-04-14T12:21:19.018Z,95821.72
2023-04-14T12:23:49.371Z,95825.78
2023-04-14T12:26:17.230Z,95822.13
2023-04-14T12:28:45.121Z,95822.66
2023-04-14T12:31:12.521Z,95814.38
2023-04-14T12:33:39.878Z,95816.53
2023-04-14T12:36:14.149Z,95819.16
2023-04-14T12:38:41.760Z,95805.50
2023-04-14T12:41:09.096Z,95813.16
2023-04-14T12:43:38.699Z,95801.91
2023-04-14T12:46:08.081Z,95804.50
2023-04-14T12:48:43.743Z,95810.44
2023-04-14T12:51:13.523Z,95800.34
2023-04-14T12:53:42.581Z,95806.47
2023-04-14T12:56:22.698Z,95798.84
2023-04-14T12:58:51.350Z,95798.84
2023-04-14T13:01:23.814Z,95799.16
2023-04-14T13:03:56.058Z,95791.16
2023-04-14T13:06:25.073Z,95783.13
2023-04-14T13:08:54.196Z,95787.75
2023-04-14T13:11:23.708Z,95793.78
2023-04-14T13:13:52.646Z,95791.16
2023-04-14T13:16:21.000Z,95791.66
2023-04-14T13:18:49.014Z,95789.34
2023-04-14T13:21:16.942Z,95793.81
2023-04-14T13:23:44.445Z,95787.84
2023-04-14T13:26:12.698Z,95781.53
2023-04-14T13:28:40.431Z,95789.88
2023-04-14T13:31:07.847Z,95780.81
2023-04-14T13:33:35.247Z,95779.13
2023-04-14T13:36:03.500Z,95773.78
2023-04-14T13:38:31.240Z,95776.22
2023-04-14T13:40:58.690Z,95778.97
2023-04-14T13:43:26.355Z,95777.31
2023-04-14T13:45:58.106Z,95772.81
2023-04-14T13:48:26.301Z,95778.31
2023-04-14T13:50:54.513Z,95780.97
2023-04-14T13:53:21.803Z,95775.09
2023-04-14T13:55:49.108Z,95769.75
2023-04-14T13:58:16.383Z,95772.28
2023-04-14T14:00:43.701Z,95772.16
2023-04-14T14:03:11.126Z,95771.91
2023-04-14T14:05:38.458Z,95775.53
2023-04-14T14:08:05.746Z,95778.63
2023-04-14T14:10:32.936Z,95772.19
2023-04-14T14:13:00.211Z,95777.84
2023-04-14T14:15:27.537Z,95785.44
2023-04-14T14:17:55.252Z,95778.72
2023-04-14T14:20:22.590Z,95789.69
2023-04-14T14:22:50.046Z,95787.13
2023-04-14T14:25:21.051Z,95780.94
2023-04-14T14:27:50.244Z,95787.97
2023-04-14T14:30:17.558Z,95788.75
2023-04-14T14:32:44.820Z,95791.13
2023-04-14T14:35:12.233Z,95797.78
2023-04-14T14:37:40.922Z,95791.03
2023-04-14T14:40:09.255Z,95795.34
2023-04-14T14:42:36.704Z,95790.69
2023-04-14T14:45:05.087Z,95792.22
2023-04-14T14:47:34.220Z,95805.88
2023-04-14T14:50:05.990Z,95805.06
2023-04-14T14:52:35.350Z,95806.19
2023-04-14T14:55:03.574Z,95812.91
2023-04-14T14:57:31.352Z,95810.31
2023-04-14T14:59:58.809Z,95814.47
2023-04-14T15:02:26.778Z,95823.34
2023-04-14T15:04:54.784Z,95819.50
2023-04-14T15:07:22.489Z,95823.75
2023-04-14T15:09:51.074Z,95824.66
2023-04-14T15:12:18.452Z,95829.09
2023-04-14T15:14:45.927Z,95831.22
2023-04-14T15:17:13.453Z,95825.28
2023-04-14T15:19:42.118Z,95820.53
2023-04-14T15:22:10.552Z,95825.19
2023-04-14T15:24:37.989Z,95818.66
2023-04-14T15:27:05.200Z,95820.75
2023-04-14T15:29:32.512Z,95831.19
2023-04-14T15:32:01.052Z,95831.47
2023-04-14T15:34:29.726Z,95833.69
2023-04-14T15:36:57.202Z,95839.91
2023-04-14T15:39:24.613Z,95836.78
2023-04-14T15:41:52.191Z,95848.56
2023-04-14T15:44:19.624Z,95842.88
2023-04-14T15:46:47.016Z,95838.56
2023-04-14T15:49:14.527Z,95843.00
2023-04-14T15:51:42.026Z,95838.78
2023-04-14T15:54:09.301Z,95835.34
2023-04-14T15:56:36.904Z,95850.75
2023-04-14T15:59:04.304Z,95842.63
2023-04-14T16:01:31.745Z,95844.22
2023-04-14T16:03:59.176Z,95843.19
2023-04-14T16:06:26.708Z,95841.63
2023-04-14T16:08:54.054Z,95842.25
2023-04-14T16:11:21.530Z,95851.97
2023-04-14T16:13:48.979Z,95845.59
2023-04-14T16:16:17.925Z,95841.56
2023-04-14T16:18:45.709Z,95839.44
2023-04-14T16:21:13.656Z,95831.22
2023-04-14T16:23:42.182Z,95841.63
2023-04-14T16:26:09.428Z,95844.09
2023-04-14T16:28:36.663Z,95843.75
2023-04-14T16:31:04.046Z,95846.13
2023-04-14T16:33:34.389Z,95844.06
2023-04-14T16:36:09.085Z,95838.91
2023-04-14T16:38:36.516Z,95840.31
2023-04-14T16:41:03.952Z,95836.78
2023-04-14T16:43:31.523Z,95827.88
2023-04-14T16:46:07.152Z,95829.09
2023-04-14T16:48:35.970Z,95831.88
2023-04-14T16:51:08.722Z,95837.56
2023-04-14T16:53:38.672Z,95835.38
2023-04-14T16:56:11.359Z,95837.25
2023-04-14T16:58:39.957Z,95840.84
2023-04-14T17:01:07.583Z,95834.69
2023-04-14T17:03:35.287Z,95846.97
2023-04-14T17:06:03.705Z,95840.38
2023-04-14T17:08:31.254Z,95848.94
2023-04-14T17:10:58.642Z,95853.56
2023-04-14T17:13:27.038Z,95849.16
2023-04-14T17:16:05.652Z,95847.59
2023-04-14T17:18:36.650Z,95846.47
2023-04-14T17:21:06.214Z,95850.22
2023-04-14T17:23:37.945Z,95848.84
2023-04-14T17:26:05.975Z,95855.66
2023-04-14T17:28:34.862Z,95856.66
2023-04-14T17:31:04.368Z,95854.34
2023-04-14T17:33:32.539Z,95850.00
2023-04-14T17:35:59.744Z,95854.78
2023-04-14T17:38:27.232Z,95852.63
2023-04-14T17:40:54.697Z,95852.13
2023-04-14T17:43:22.687Z,95854.16
2023-04-14T17:45:50.726Z,95851.63
2023-04-14T17:48:18.156Z,95850.03
2023-04-14T17:50:46.512Z,95837.09
2023-04-14T17:53:15.671Z,95829.81
2023-04-14T17:55:43.743Z,95830.47
2023-04-14T17:58:11.203Z,95815.78
2023-04-14T18:00:39.314Z,95820.97
2023-04-14T18:03:06.797Z,95822.38
2023-04-14T18:05:34.149Z,95821.63
2023-04-14T18:08:01.552Z,95822.84
2023-04-14T18:10:29.079Z,95829.56
2023-04-14T18:12:56.591Z,95830.47
2023-04-14T18:15:23.927Z,95836.59
2023-04-14T18:17:51.439Z,95819.75
2023-04-14T18:20:24.718Z,95826.56
2023-04-14T18:22:54.285Z,95821.94
2023-04-14T18:25:21.697Z,95823.66
2023-04-14T18:30:19.468Z,95814.50
2023-04-14T18:32:46.806Z,95815.97
2023-04-14T18:35:15.812Z,95813.69
2023-04-14T18:37:43.347Z,95808.81
2023-04-14T18:40:10.964Z,95805.34
2023-04-14T18:42:39.151Z,95806.94
2023-04-14T18:45:07.431Z,95811.88
2023-04-14T18:47:35.000Z,95821.75
2023-04-14T18:50:04.200Z,95826.47
2023-04-14T18:52:31.533Z,95832.41
2023-04-14T18:54:59.085Z,95823.84
2023-04-14T18:57:26.899Z,95809.16
2023-04-14T18:59:54.192Z,95812.38
2023-04-14T19:02:21.648Z,95803.06
2023-04-14T19:04:51.918Z,95806.31
2023-04-14T19:07:19.354Z,95813.50
2023-04-14T19:09:46.671Z,95815.28
2023-04-14T19:12:25.507Z,95802.31
2023-04-14T19:14:55.658Z,95801.88
2023-04-14T19:17:23.038Z,95803.72
2023-04-14T19:19:50.510Z,95812.47
2023-04-14T19:22:17.891Z,95805.63
2023-04-14T19:24:45.130Z,95806.59
2023-04-14T19:27:12.295Z,95806.25
2023-04-14T19:29:39.699Z,95815.59
2023-04-14T19:32:07.141Z,95823.22
2023-04-14T19:34:34.619Z,95810.59
2023-04-14T19:37:04.118Z,95811.06
2023-04-14T19:39:31.908Z,95814.31
2023-04-14T19:41:59.417Z,95815.09
2023-04-14T19:44:27.268Z,95809.91
2023-04-14T19:46:54.787Z,95814.94
2023-04-14T19:49:22.841Z,95809.50
2023-04-14T19:51:51.006Z,95814.34
2023-04-14T19:54:20.401Z,95807.34
2023-04-14T19:56:47.821Z,95814.38
2023-04-14T19:59:15.421Z,95815.63
2023-04-14T20:01:42.775Z,95828.69
2023-04-14T20:04:12.822Z,95821.34
2023-04-14T20:06:42.919Z,95829.91
2023-04-14T20:09:10.620Z,95835.09
2023-04-14T20:12:03.297Z,95824.88
2023-04-14T20:14:30.743Z,95827.91
2023-04-14T20:16:58.255Z,95829.31
2023-04-14T20:19:25.844Z,95827.75
2023-04-14T20:22:17.911Z,95820.91
2023-04-14T20:25:09.896Z,95818.38
2023-04-14T20:28:02.326Z,95828.69
2023-04-14T20:30:32.255Z,95846.28
2023-04-14T20:33:04.706Z,95832.47
2023-04-14T20:35:36.263Z,95833.84
2023-04-14T20:38:05.322Z,95841.63
2023-04-14T20:40:32.995Z,95849.91
2023-04-14T20:43:00.705Z,95856.28
2023-04-14T20:45:27.962Z,95860.00
2023-04-14T20:47:55.505Z,95863.75
2023-04-14T20:50:23.388Z,95869.19
2023-04-14T20:52:50.828Z,95870.91
2023-04-14T20:55:19.943Z,95872.00
2023-04-14T20:57:48.209Z,95877.75
2023-04-14T21:00:16.804Z,95880.56
2023-04-14T21:02:45.516Z,95868.72
2023-04-14T21:05:15.492Z,95868.91
2023-04-14T21:07:43.772Z,95880.25
2023-04-14T21:10:13.074Z,95878.53
2023-04-14T21:13:54.296Z,95878.69
2023-04-14T21:15:51.872Z,95878.69
2023-04-14T21:18:15.470Z,95883.50
2023-04-14T21:20:43.581Z,95895.28
2023-04-14T21:23:10.884Z,95894.06
2023-04-14T21:25:38.539Z,95903.72
2023-04-14T21:28:06.254Z,95899.22
2023-04-14T21:30:34.350Z,95907.28
2023-04-14T21:33:01.983Z,95914.56
2023-04-14T21:35:29.691Z,95912.06
2023-04-14T21:37:57.533Z,95910.16
2023-04-14T21:40:25.118Z,95916.81
2023-04-14T21:42:53.028Z,95924.09
2023-04-14T21:45:20.541Z,95923.81
2023-04-14T21:47:48.005Z,95922.41
2023-04-14T21:50:15.432Z,95925.97
2023-04-14T21:52:42.727Z,95930.78
2023-04-14T21:55:10.510Z,95936.44
2023-04-14T21:57:44.390Z,95930.75
2023-04-14T22:00:20.484Z,95943.94
2023-04-14T22:02:48.358Z,95938.38
2023-04-14T22:05:16.103Z,95949.69
2023-04-14T22:07:43.363Z,95954.38
2023-04-14T22:10:12.238Z,95952.41
2023-04-14T22:12:40.017Z,95954.44
2023-04-14T22:15:08.818Z,95951.59
2023-04-14T22:17:37.575Z,95945.13
2023-04-14T22:20:06.536Z,95953.22
2023-04-14T22:22:34.876Z,95946.28
2023-04-14T22:25:04.265Z,95955.19
2023-04-14T22:27:33.973Z,95968.66
2023-04-14T22:30:02.713Z,95967.22
2023-04-14T22:32:30.035Z,95958.72
2023-04-14T22:34:57.374Z,95953.84
2023-04-14T22:37:24.591Z,95951.88
2023-04-14T22:39:52.062Z,95961.66
2023-04-14T22:42:19.275Z,95962.13
2023-04-14T22:44:48.161Z,95961.81
2023-04-14T22:47:15.643Z,95967.47
2023-04-14T22:49:42.932Z,95968.84
2023-04-14T22:52:10.184Z,95978.53
2023-04-14T22:54:37.506Z,95980.44
2023-04-14T22:57:05.168Z,95976.06
2023-04-14T22:59:32.497Z,95976.06
2023-04-14T23:01:59.790Z,95966.34
2023-04-14T23:04:27.169Z,95965.84
2023-04-14T23:06:54.727Z,95959.13
2023-04-14T23:09:22.007Z,95970.84
2023-04-14T23:11:49.428Z,95973.88
2023-04-14T23:14:16.979Z,95977.25
2023-04-14T23:16:44.174Z,95978.22
2023-04-14T23:19:11.711Z,95981.56
2023-04-14T23:21:38.979Z,95974.03
2023-04-14T23:24:07.508Z,95976.31
2023-04-14T23:26:34.855Z,95979.22
2023-04-14T23:29:02.369Z,95983.50
2023-04-14T23:31:29.854Z,95988.88
2023-04-14T23:33:57.278Z,95993.97
2023-04-14T23:36:24.499Z,95986.94
2023-04-14T23:38:51.789Z,95992.22
2023-04-14T23:41:19.527Z,95989.06
2023-04-14T23:43:49.206Z,95988.03
2023-04-14T23:46:16.501Z,95990.34
2023-04-14T23:48:43.745Z,95986.22
2023-04-14T23:51:21.667Z,96000.00
2023-04-14T23:53:49.701Z,96000.31
2023-04-14T23:56:17.691Z,96006.59
2023-04-14T23:58:45.071Z,96014.16
